Time;durP1;ratioP1;P1;durP2;ratioP2;P2;SDS_P1;SDS_P2;PMS_P1;PMS_P2;Temp;Humidity;BMP_temperature;BMP_pressure;BME280_temperature;BME280_humidity;BME280_pressure;Samples;Min_cycle;Max_cycle;Signal;HPM_P1;HPM_P2
2020/12/08 09:54:55;;;;;;;41.13;20.52;;;6.60;99.90;;;;;;5151161;27;20350;-76
2020/12/08 09:57:21;;;;;;;43.55;22.38;;;6.70;99.90;;;;;;5143340;27;20030;-77
2020/12/08 10:02:29;;;;;;;44.03;21.15;;;7.10;99.90;;;;;;5048074;28;20356;-78
2020/12/08 10:04:54;;;;;;;49.03;21.95;;;7.20;99.90;;;;;;5028205;28;20034;-79
2020/12/08 10:07:23;;;;;;;41.17;20.27;;;7.40;99.90;;;;;;5027291;28;20060;-76
2020/12/08 10:09:50;;;;;;;37.92;20.67;;;7.40;99.90;;;;;;5030633;28;20022;-77
2020/12/08 10:12:17;;;;;;;40.55;20.17;;;7.50;99.90;;;;;;5023604;28;20032;-77
2020/12/08 10:14:43;;;;;;;37.30;19.30;;;7.50;99.90;;;;;;5024483;28;20784;-76
2020/12/08 10:17:10;;;;;;;40.28;18.98;;;7.40;99.90;;;;;;5037895;28;20029;-77
2020/12/08 10:19:36;;;;;;;39.60;18.58;;;7.40;99.90;;;;;;5023748;28;20491;-77
2020/12/08 10:22:02;;;;;;;43.03;20.75;;;7.30;99.90;;;;;;5027669;28;20131;-76
2020/12/08 10:24:28;;;;;;;55.47;25.48;;;7.30;99.90;;;;;;5030514;28;20502;-76
2020/12/08 10:26:54;;;;;;;44.53;21.13;;;7.40;99.90;;;;;;5024770;28;20036;-76
2020/12/08 10:29:20;;;;;;;47.63;22.20;;;7.30;99.90;;;;;;5025468;28;20021;-76
2020/12/08 10:31:48;;;;;;;40.63;19.92;;;7.40;99.90;;;;;;5040666;28;20048;-76
2020/12/08 10:34:14;;;;;;;49.28;23.73;;;7.40;99.90;;;;;;5030256;28;20509;-76
2020/12/08 10:36:43;;;;;;;41.28;21.00;;;7.40;99.90;;;;;;5030168;28;20045;-75
2020/12/08 10:39:10;;;;;;;40.47;20.17;;;7.50;99.90;;;;;;5025996;28;20383;-76
2020/12/08 10:41:35;;;;;;;42.03;20.73;;;7.40;99.90;;;;;;5023000;28;20061;-76
2020/12/08 10:44:01;;;;;;;38.95;20.38;;;7.40;99.90;;;;;;5029211;28;20022;-75
2020/12/08 10:46:27;;;;;;;44.22;20.50;;;7.20;99.90;;;;;;5022694;28;20034;-77
2020/12/08 10:48:53;;;;;;;39.13;19.15;;;7.20;99.90;;;;;;5027073;28;20029;-76
2020/12/08 10:51:24;;;;;;;34.13;17.73;;;7.30;99.90;;;;;;5031585;28;20117;-78
2020/12/08 10:53:50;;;;;;;38.80;18.83;;;7.20;99.90;;;;;;5026114;28;20034;-81
2020/12/08 10:56:21;;;;;;;34.35;17.63;;;7.10;99.90;;;;;;5028839;28;20041;-77
2020/12/08 10:58:47;;;;;;;41.88;20.58;;;7.10;99.90;;;;;;5037638;28;20053;-77
2020/12/08 11:01:23;;;;;;;35.75;17.58;;;7.20;99.90;;;;;;5028378;28;20056;-76
2020/12/08 11:03:50;;;;;;;38.17;19.25;;;7.20;99.90;;;;;;5032137;28;20056;-80
2020/12/08 11:06:34;;;;;;;38.15;19.73;;;7.30;99.90;;;;;;5028463;28;20040;-79
2020/12/08 11:08:59;;;;;;;39.20;18.58;;;7.30;99.90;;;;;;5033216;28;20104;-80
2020/12/08 11:11:28;;;;;;;36.47;18.33;;;7.40;99.90;;;;;;5028709;28;20491;-81
2020/12/08 11:13:55;;;;;;;37.08;19.17;;;7.30;99.90;;;;;;5020712;28;20026;-81
2020/12/08 11:16:22;;;;;;;37.20;18.38;;;7.40;99.90;;;;;;5011006;28;20048;-81
2020/12/08 11:18:55;;;;;;;37.28;18.30;;;7.50;99.90;;;;;;5016630;28;20096;-81
2020/12/08 11:21:26;;;;;;;36.92;18.15;;;7.50;99.90;;;;;;5013632;28;20511;-77
2020/12/08 11:23:52;;;;;;;33.63;17.48;;;7.50;99.90;;;;;;5009267;28;20057;-80
2020/12/08 11:26:21;;;;;;;33.88;17.70;;;7.60;99.90;;;;;;5012516;28;20030;-75
2020/12/08 11:28:46;;;;;;;34.47;17.73;;;7.50;99.90;;;;;;5014376;28;20033;-75
2020/12/08 11:31:12;;;;;;;36.83;16.83;;;7.50;99.90;;;;;;5008114;28;20140;-77
2020/12/08 11:33:38;;;;;;;36.38;17.70;;;7.50;99.90;;;;;;5016402;28;20475;-75
2020/12/08 11:36:06;;;;;;;35.92;18.65;;;7.50;99.90;;;;;;5010056;28;20491;-76
2020/12/08 11:38:35;;;;;;;37.58;17.58;;;7.70;99.90;;;;;;5008568;28;20513;-76
2020/12/08 11:41:02;;;;;;;34.55;17.92;;;7.60;99.90;;;;;;5003826;28;20037;-73
2020/12/08 11:43:28;;;;;;;32.72;17.15;;;7.70;99.90;;;;;;5009729;28;20033;-75
2020/12/08 11:45:53;;;;;;;33.35;17.10;;;7.70;99.90;;;;;;5007165;28;20121;-76
2020/12/08 11:48:22;;;;;;;34.17;16.75;;;7.80;99.90;;;;;;5010965;28;20026;-75
2020/12/08 11:50:48;;;;;;;29.52;15.23;;;7.80;99.90;;;;;;5015781;28;20136;-76
2020/12/08 11:53:14;;;;;;;33.05;16.55;;;7.80;99.90;;;;;;5006440;28;20026;-74
2020/12/08 11:55:39;;;;;;;33.78;16.30;;;7.70;99.90;;;;;;5009189;28;20496;-77
2020/12/08 11:58:05;;;;;;;31.73;16.65;;;7.80;99.90;;;;;;5007376;28;20087;-76
2020/12/08 12:00:31;;;;;;;32.35;17.20;;;7.90;99.90;;;;;;5010712;28;20057;-76
2020/12/08 12:02:56;;;;;;;31.90;16.48;;;8.00;99.90;;;;;;4998395;28;20393;-75
2020/12/08 12:05:22;;;;;;;30.80;15.68;;;8.00;99.90;;;;;;5010834;28;20038;-75
2020/12/08 12:07:48;;;;;;;34.67;17.15;;;8.10;99.90;;;;;;5005562;28;20061;-76
2020/12/08 12:10:13;;;;;;;31.30;15.43;;;8.00;99.90;;;;;;5008837;28;20037;-75
2020/12/08 12:12:42;;;;;;;32.20;16.00;;;8.10;99.90;;;;;;5007787;28;20030;-75
2020/12/08 12:15:08;;;;;;;31.23;15.18;;;8.00;99.90;;;;;;5011861;28;20037;-73
2020/12/08 12:17:34;;;;;;;31.00;14.70;;;7.90;99.90;;;;;;5007664;28;20023;-72
2020/12/08 12:20:00;;;;;;;31.15;16.20;;;8.00;99.90;;;;;;5006899;28;20042;-73
2020/12/08 12:22:26;;;;;;;31.08;16.38;;;8.10;99.90;;;;;;4999949;28;20030;-73
2020/12/08 12:24:53;;;;;;;30.67;15.43;;;8.20;99.90;;;;;;5011794;28;20127;-74
2020/12/08 12:27:19;;;;;;;30.45;14.60;;;8.30;99.90;;;;;;5005492;28;20077;-73
2020/12/08 12:29:45;;;;;;;29.67;13.68;;;8.30;99.90;;;;;;5006854;28;20026;-75
2020/12/08 12:32:12;;;;;;;28.50;14.18;;;8.30;99.90;;;;;;5006794;28;20048;-74
2020/12/08 12:34:38;;;;;;;30.10;15.95;;;8.40;99.90;;;;;;5004226;28;20034;-74
2020/12/08 12:37:04;;;;;;;26.02;14.25;;;8.30;99.90;;;;;;5010719;28;20072;-73
2020/12/08 12:39:31;;;;;;;30.52;15.35;;;8.40;99.90;;;;;;5004373;28;20540;-74
2020/12/08 12:41:56;;;;;;;30.52;14.57;;;8.50;99.90;;;;;;5010951;28;20025;-77
2020/12/08 12:44:22;;;;;;;31.25;15.07;;;8.60;99.90;;;;;;5015256;28;20025;-78
2020/12/08 12:46:52;;;;;;;33.33;15.98;;;8.60;99.90;;;;;;5021436;28;20121;-79
2020/12/08 12:49:19;;;;;;;30.20;15.23;;;8.50;99.90;;;;;;5019549;28;20026;-78
2020/12/08 12:51:44;;;;;;;31.75;15.75;;;8.50;99.90;;;;;;5017878;28;20080;-79
2020/12/08 12:54:10;;;;;;;28.50;14.25;;;8.50;99.90;;;;;;5012737;28;20854;-80
2020/12/08 12:56:35;;;;;;;30.60;14.80;;;8.50;99.90;;;;;;5011210;28;20547;-78
2020/12/08 12:59:01;;;;;;;28.45;14.98;;;8.60;99.90;;;;;;5022888;28;20040;-81
2020/12/08 13:01:27;;;;;;;28.73;14.57;;;8.60;99.90;;;;;;5006353;28;20042;-79
2020/12/08 13:03:52;;;;;;;29.05;14.13;;;8.60;99.90;;;;;;4998696;28;20026;-79
2020/12/08 13:06:18;;;;;;;30.45;14.93;;;8.70;99.90;;;;;;5008021;28;20034;-79
2020/12/08 13:08:44;;;;;;;27.55;14.18;;;8.60;99.90;;;;;;5003878;28;20019;-79
2020/12/08 13:11:12;;;;;;;30.30;12.95;;;8.60;99.90;;;;;;4992937;28;20030;-74
2020/12/08 13:13:38;;;;;;;26.60;13.70;;;8.60;99.90;;;;;;4988745;28;20508;-73
2020/12/08 13:16:05;;;;;;;26.30;12.60;;;8.40;99.90;;;;;;4982665;28;20039;-75
2020/12/08 13:18:31;;;;;;;28.75;14.05;;;8.30;99.90;;;;;;4979346;28;20029;-74
2020/12/08 13:20:57;;;;;;;31.58;14.75;;;8.30;99.90;;;;;;4991707;28;20034;-74
2020/12/08 13:23:24;;;;;;;35.30;14.52;;;8.50;99.90;;;;;;4985835;28;20023;-79
2020/12/08 13:25:51;;;;;;;30.33;14.00;;;8.70;99.90;;;;;;4993153;28;20038;-79
2020/12/08 13:28:17;;;;;;;26.67;13.73;;;8.80;99.90;;;;;;4993298;28;20046;-79
2020/12/08 13:30:42;;;;;;;25.40;13.18;;;8.90;99.90;;;;;;4991843;28;20065;-81
2020/12/08 13:33:08;;;;;;;25.88;13.35;;;8.90;99.90;;;;;;5005476;28;20041;-80
2020/12/08 13:35:33;;;;;;;30.92;15.45;;;9.00;99.90;;;;;;4989304;28;20052;-79
2020/12/08 13:37:59;;;;;;;31.20;13.35;;;9.00;99.90;;;;;;4987654;28;20114;-79
2020/12/08 13:40:24;;;;;;;30.95;14.88;;;8.90;99.90;;;;;;4993647;28;20038;-79
2020/12/08 13:42:50;;;;;;;31.00;14.65;;;8.70;99.90;;;;;;4989484;28;20050;-78
2020/12/08 13:45:16;;;;;;;37.97;15.73;;;8.60;99.90;;;;;;4990812;28;20026;-79
2020/12/08 13:47:44;;;;;;;30.92;14.25;;;8.50;99.90;;;;;;5012740;28;20033;-79
2020/12/08 13:50:12;;;;;;;32.10;15.68;;;8.40;99.90;;;;;;5008845;28;20045;-79
2020/12/08 13:52:38;;;;;;;30.15;15.40;;;8.40;99.90;;;;;;5011838;28;20072;-78
2020/12/08 13:55:04;;;;;;;28.80;14.25;;;8.40;99.90;;;;;;5011071;28;20034;-79
2020/12/08 13:57:29;;;;;;;34.70;15.30;;;8.20;99.90;;;;;;5008736;28;20045;-78
2020/12/08 13:59:58;;;;;;;30.98;14.18;;;8.20;99.90;;;;;;5008062;28;20029;-78
2020/12/08 14:02:23;;;;;;;35.08;14.65;;;8.30;99.90;;;;;;5010181;28;20042;-79
2020/12/08 14:04:49;;;;;;;32.83;15.52;;;8.20;99.90;;;;;;5013456;28;20037;-78
2020/12/08 14:07:18;;;;;;;31.38;14.55;;;8.10;99.90;;;;;;5012307;28;20029;-77
2020/12/08 14:09:43;;;;;;;31.67;15.02;;;7.90;99.90;;;;;;5015840;28;20038;-78
2020/12/08 14:12:09;;;;;;;35.70;15.38;;;8.10;99.90;;;;;;5007822;28;20431;-79
2020/12/08 14:14:34;;;;;;;35.47;15.68;;;8.20;99.90;;;;;;5013280;28;20045;-81
2020/12/08 14:17:00;;;;;;;33.30;15.38;;;8.10;99.90;;;;;;5016684;28;20033;-80
2020/12/08 14:19:26;;;;;;;35.45;15.85;;;8.10;99.90;;;;;;5013140;28;20041;-82
2020/12/08 14:21:53;;;;;;;33.03;15.57;;;8.10;99.90;;;;;;5010223;28;20037;-81
2020/12/08 14:24:23;;;;;;;33.00;15.82;;;8.00;99.90;;;;;;5008852;28;20033;-81
2020/12/08 14:26:49;;;;;;;34.17;15.88;;;8.00;99.90;;;;;;5014540;28;20026;-82
2020/12/08 14:29:17;;;;;;;35.05;16.83;;;8.00;99.90;;;;;;5011409;28;20405;-82
2020/12/08 14:31:43;;;;;;;35.28;15.23;;;8.10;99.90;;;;;;5006902;28;20034;-81
2020/12/08 14:34:10;;;;;;;34.15;15.63;;;8.10;99.90;;;;;;5015221;28;20372;-81
2020/12/08 14:36:36;;;;;;;33.10;16.15;;;8.10;99.90;;;;;;5016232;28;20037;-80
2020/12/08 14:39:03;;;;;;;36.03;15.82;;;8.10;99.90;;;;;;5010967;28;20042;-81
2020/12/08 14:41:32;;;;;;;30.08;14.73;;;8.10;99.90;;;;;;5010102;28;20030;-80
2020/12/08 14:43:57;;;;;;;32.63;15.60;;;8.10;99.90;;;;;;5015137;28;20034;-80
2020/12/08 14:46:31;;;;;;;31.27;15.55;;;8.10;99.90;;;;;;5020299;28;20030;-81
2020/12/08 14:48:58;;;;;;;35.45;15.63;;;8.10;99.90;;;;;;5020393;28;20053;-82
2020/12/08 14:51:23;;;;;;;33.60;15.07;;;8.10;99.90;;;;;;5017035;28;20069;-82
2020/12/08 14:53:49;;;;;;;28.00;14.57;;;8.10;99.90;;;;;;4997956;28;20084;-80
2020/12/08 14:56:19;;;;;;;30.23;13.98;;;8.10;99.90;;;;;;5018623;28;20036;-81
2020/12/08 14:58:45;;;;;;;28.67;13.30;;;8.00;99.90;;;;;;5014091;28;20612;-76
2020/12/08 15:01:12;;;;;;;28.70;13.35;;;8.00;99.90;;;;;;5005487;28;20041;-77
2020/12/08 15:03:38;;;;;;;25.90;12.52;;;8.00;99.90;;;;;;5009528;28;20033;-79
2020/12/08 15:06:04;;;;;;;25.33;13.05;;;8.00;99.90;;;;;;5010936;28;20026;-79
2020/12/08 15:08:29;;;;;;;28.02;12.48;;;8.00;99.90;;;;;;5009851;28;20037;-78
2020/12/08 15:10:55;;;;;;;27.98;12.38;;;7.90;99.90;;;;;;5008974;28;20030;-79
2020/12/08 15:13:22;;;;;;;25.88;12.10;;;7.90;99.90;;;;;;5012025;28;20419;-78
2020/12/08 15:15:48;;;;;;;23.77;11.90;;;7.80;99.90;;;;;;5016580;28;20045;-77
